METAR Data
IDs: Format: Raw Decoded Include TAF

Data at: 1243 UTC 16 Oct 2018

PAHO 161153Z AUTO 05004KT 10SM SCT035 OVC043 09/08 A2925 RMK AO2 SLP905 60012 70031 T00890083 10106 20083 58001 TSNO
PAHO 161117Z AUTO 07009KT 10SM SCT003 BKN039 OVC048 09/08 A2925 RMK AO2 T00890083 TSNO
PAHO 161053Z AUTO 06007KT 8SM OVC002 09/08 A2924 RMK AO2 SLP902 T00890083 TSNO
PAHO 161031Z AUTO 06007KT 4SM BR OVC002 09/08 A2925 RMK AO2 T00890083 TSNO
PAHO 160953Z AUTO 04004KT 10SM BKN004 BKN050 OVC090 09/08 A2927 RMK AO2 RAE0855B12E33 SLP911 P0001 T00890083 TSNO
PAHO 160946Z AUTO 04003KT 10SM SCT004 BKN055 OVC100 08/08 A2926 RMK AO2 RAE0855B12E33 P0001 T00830083 TSNO
PAHO 160853Z AUTO 00000KT 10SM -RA FEW055 OVC075 09/09 A2925 RMK AO2 RAE0756B26 SLP906 P0001 60011 T00940089 401390050 53001 TSNO
PAHO 160753Z AUTO 29003KT 10SM -RA FEW047 OVC060 10/08 A2925 RMK AO2 SLP906 P0003 T01000083 TSNO
PAHO 160653Z AUTO 29003KT 10SM -RA FEW019 OVC050 10/09 A2925 RMK AO2 SLP905 P0007 T01000094 TSNO
PAHO 160607Z AUTO 26005KT 5SM -RA BR FEW018 BKN033 OVC042 11/09 A2926 RMK AO2 P0004 T01060094 TSNO
PAHO 160553Z AUTO 26007KT 5SM RA BR FEW008 BKN025 OVC044 10/09 A2925 RMK AO2 SLP906 P0008 60019 T01000094 10128 20100 53004 TSNO
PAHO 160535Z AUTO 26007KT 4SM RA BR FEW008 SCT026 OVC045 11/10 A2925 RMK AO2 P0005 T01060100 TSNO
PAHO 160453Z 29003KT 5SM -RA BR FEW029 SCT036 OVC047 11/10 A2924 RMK AO2 RAB0354 SLP903 P0007 T01060100
PAHO 160353Z 00000KT 10SM BKN039 OVC055 11/09 A2924 RMK AO2 RAE50 SLP900 P0001 T01060094
PAHO 160253Z 00000KT 10SM -RA FEW042 BKN048 OVC060 11/09 A2924 RMK AO2 RAB41 SLP902 P0000 60003 T01060089 56015
PAHO 160153Z 06004KT 10SM FEW045 OVC075 11/09 A2925 RMK AO2 RAB0054E11B33E46 SLP905 P0001 T01110094
PAHO 160053Z 10004KT 10SM SCT055 BKN070 OVC090 12/09 A2926 RMK AO2 RAB07E47 SLP909 P0002 T01170094
PAHO 152353Z 11005KT 10SM FEW048 BKN060 OVC075 12/08 A2928 RMK AO2 SLP916 60000 T01220078 10139 20100 56032
PAHO 152253Z 09003KT 10SM BKN075 OVC120 13/08 A2931 RMK AO2 SLP926 T01330083
PAHO 152153Z 08005KT 10SM BKN050 BKN100 OVC120 12/08 A2934 RMK AO2 SLP937 T01170078
PAHO 152053Z 06011G15KT 10SM SCT050 BKN065 OVC080 12/08 A2938 RMK AO2 SLP948 60000 T01220078 58024
PAHO 151953Z 06011G15KT 10SM FEW050 BKN080 OVC110 11/07 A2941 RMK AO2 SLP958 T01110067
PAHO 151853Z 07010G15KT 10SM SCT055 BKN085 BKN100 10/07 A2943 RMK AO2 SLP965 -SHRA P0000 T01000067
PAHO 151753Z 07009KT 10SM -RA BKN060 BKN080 11/06 A2945 RMK AO2 RAB49 SLP972 P0000 60000 T01110061 10111 20061 58028
PAHO 151653Z 06006KT 10SM FEW060 11/04 A2950 RMK AO2 SLP990 T01060044
PAHO 151553Z 06009KT 10SM SCT049 BKN110 10/03 A2950 RMK AO2 SLP991 T01000033
PAHO 151453Z 05009KT 10SM BKN110 09/02 A2953 RMK AO2 SLP000 T00940022 58025
PAHO 151353Z AUTO 05009KT 10SM OVC120 09/02 A2955 RMK AO2 SLP007 T00940022 TSNO
PAHO 151253Z AUTO 01005KT 10SM FEW120 07/03 A2960 RMK AO2 SLP024 T00670033 TSNO
PAHO 151153Z AUTO 02003KT 10SM CLR 07/02 A2961 RMK AO2 SLP025 70001 T00670017 10078 20050 58013 TSNO
PAHO 151053Z AUTO 03006KT 10SM BKN075 06/03 A2962 RMK AO2 SLP030 T00560028 TSNO
PAHO 150953Z AUTO 08008KT 10SM FEW055 05/03 A2963 RMK AO2 SLP035 T00500028 TSNO
PAHO 150853Z AUTO 08005KT 10SM CLR 06/03 A2964 RMK AO2 SLP038 T00610033 401000017 58007 TSNO
PAHO 150753Z AUTO 08011KT 10SM SCT060 07/03 A2966 RMK AO2 SLP042 T00720028 TSNO
PAHO 150653Z AUTO 05005KT 10SM FEW060 BKN080 07/02 A2966 RMK AO2 SLP045 T00670017 TSNO
PAHO 150553Z AUTO 05007KT 10SM BKN080 07/02 A2967 RMK AO2 PK WND 03026/0545 SLP046 60000 T00720022 10089 20072 58006 TSNO
PAHO 150453Z 06008KT 10SM FEW050 SCT075 07/02 A2968 RMK AO2 SLP049 T00720022
PAHO 150353Z 05008KT 10SM OVC070 09/02 A2968 RMK AO2 SLP049 T00890022
PAHO 150253Z 05007KT 10SM BKN075 OVC095 09/03 A2969 RMK AO2 SLP052 60000 T00890028 56021
PAHO 150153Z 00000KT 10SM OVC075 08/05 A2970 RMK AO2 RAB14E30 SLP056 P0000 T00830050
PAHO 150053Z 13003KT 10SM BKN045 OVC065 09/05 A2973 RMK AO2 RAB11E52 SLP066 P0000 T00890050